createdAt,value
2019-04-16T00:02:27.435Z,9.40
2019-04-16T00:05:21.834Z,8.80
2019-04-16T00:08:26.677Z,9.80
2019-04-16T00:10:51.716Z,10.00
2019-04-16T00:13:27.839Z,10.40
2019-04-16T00:15:59.508Z,11.00
2019-04-16T00:18:28.988Z,9.00
2019-04-16T00:21:22.100Z,10.00
2019-04-16T00:24:19.805Z,8.20
2019-04-16T00:26:59.309Z,11.60
2019-04-16T00:29:32.725Z,10.80
2019-04-16T00:32:12.690Z,9.60
2019-04-16T00:34:44.513Z,12.00
2019-04-16T00:37:15.590Z,9.80
2019-04-16T00:39:46.942Z,6.80
2019-04-16T00:42:16.698Z,9.20
2019-04-16T00:44:46.558Z,11.20
2019-04-16T00:47:17.710Z,9.00
2019-04-16T00:49:48.829Z,9.80
2019-04-16T00:52:21.223Z,10.60
2019-04-16T00:54:53.002Z,11.60
2019-04-16T00:57:23.148Z,9.80
2019-04-16T00:59:56.127Z,11.20
2019-04-16T01:02:23.957Z,10.40
2019-04-16T01:04:53.557Z,9.80
2019-04-16T01:07:23.654Z,12.80
2019-04-16T01:09:56.127Z,3.60
2019-04-16T01:12:25.566Z,11.60
2019-04-16T01:14:58.887Z,10.20
2019-04-16T01:17:27.109Z,8.80
2019-04-16T01:19:57.123Z,11.60
2019-04-16T01:22:28.571Z,9.40
2019-04-16T01:25:01.528Z,12.00
2019-04-16T01:27:34.661Z,7.00
2019-04-16T01:30:06.512Z,12.00
2019-04-16T01:32:54.298Z,10.80
2019-04-16T01:35:52.730Z,9.80
2019-04-16T01:38:37.781Z,10.60
2019-04-16T01:41:11.664Z,12.40
2019-04-16T01:43:42.699Z,12.00
2019-04-16T01:46:12.969Z,10.40
2019-04-16T01:48:43.556Z,9.60
2019-04-16T01:51:15.384Z,12.60
2019-04-16T01:53:45.127Z,11.60
2019-04-16T01:56:16.239Z,11.60
2019-04-16T01:58:45.795Z,13.80
2019-04-16T02:01:17.041Z,12.80
2019-04-16T02:03:48.838Z,9.20
2019-04-16T02:06:18.213Z,11.60
2019-04-16T02:08:51.491Z,12.60
2019-04-16T02:11:22.897Z,9.20
2019-04-16T02:13:55.016Z,9.20
2019-04-16T02:16:25.221Z,12.00
2019-04-16T02:19:01.337Z,9.80
2019-04-16T02:21:30.377Z,6.20
2019-04-16T02:24:00.196Z,14.20
2019-04-16T02:26:30.927Z,9.20
2019-04-16T02:29:00.592Z,12.20
2019-04-16T02:31:30.279Z,11.80
2019-04-16T02:33:59.845Z,6.80
2019-04-16T02:36:29.561Z,9.60
2019-04-16T02:38:59.270Z,10.00
2019-04-16T02:41:28.893Z,12.00
2019-04-16T02:43:59.402Z,8.60
2019-04-16T02:46:32.337Z,11.60
2019-04-16T02:49:00.307Z,13.40
2019-04-16T02:51:46.388Z,6.40
2019-04-16T02:54:34.539Z,11.20
2019-04-16T02:57:26.665Z,8.60
2019-04-16T02:59:54.662Z,10.40
2019-04-16T03:02:58.901Z,11.20
2019-04-16T03:05:32.092Z,7.00
2019-04-16T03:08:04.619Z,7.40
2019-04-16T03:10:36.844Z,9.20
2019-04-16T03:13:09.311Z,11.20
2019-04-16T03:16:02.758Z,9.40
2019-04-16T03:18:38.321Z,11.20
2019-04-16T03:21:07.933Z,10.40
2019-04-16T03:23:38.203Z,10.80
2019-04-16T03:26:07.750Z,9.80
2019-04-16T03:28:37.485Z,9.20
2019-04-16T03:31:09.105Z,4.80
2019-04-16T03:33:48.585Z,9.00
2019-04-16T03:36:10.388Z,10.80
2019-04-16T03:38:42.886Z,10.00
2019-04-16T03:41:12.630Z,12.00
2019-04-16T03:43:42.161Z,9.60
2019-04-16T03:46:13.003Z,10.00
2019-04-16T03:48:44.872Z,9.00
2019-04-16T03:51:15.383Z,9.00
2019-04-16T03:53:49.554Z,1.00
2019-04-16T03:56:19.140Z,7.00
2019-04-16T03:58:49.380Z,6.60
2019-04-16T04:01:20.570Z,12.40
2019-04-16T04:03:54.420Z,7.80
2019-04-16T04:06:23.581Z,10.40
2019-04-16T04:08:54.104Z,7.80
2019-04-16T04:11:25.032Z,10.80
2019-04-16T04:13:56.278Z,9.40
2019-04-16T04:16:30.521Z,5.40
2019-04-16T04:19:00.671Z,10.80
2019-04-16T04:21:31.752Z,12.00
2019-04-16T04:24:01.274Z,10.20
2019-04-16T04:26:31.212Z,10.00
2019-04-16T04:29:07.829Z,9.20
2019-04-16T04:31:33.082Z,6.80
2019-04-16T04:34:02.675Z,8.60
2019-04-16T04:36:32.331Z,10.00
2019-04-16T04:39:02.069Z,9.60
2019-04-16T04:41:32.082Z,9.40
2019-04-16T04:44:04.342Z,7.40
2019-04-16T04:46:35.704Z,9.80
2019-04-16T04:49:09.201Z,9.60
2019-04-16T04:51:43.500Z,10.00
2019-04-16T04:54:11.627Z,13.80
2019-04-16T04:56:42.941Z,9.80
2019-04-16T04:59:12.727Z,10.00
2019-04-16T05:01:42.718Z,9.80
2019-04-16T05:04:31.537Z,11.60
2019-04-16T05:07:04.858Z,9.60
2019-04-16T05:09:36.862Z,9.80
2019-04-16T05:12:08.577Z,11.20
2019-04-16T05:14:57.101Z,12.60
2019-04-16T05:17:24.733Z,9.00
2019-04-16T05:19:54.366Z,11.20
2019-04-16T05:22:24.063Z,11.00
2019-04-16T05:25:00.868Z,12.60
2019-04-16T05:27:29.179Z,8.80
2019-04-16T05:29:59.331Z,12.20
2019-04-16T05:32:32.719Z,11.60
2019-04-16T05:35:00.032Z,10.80
2019-04-16T05:37:29.568Z,9.40
2019-04-16T05:40:00.926Z,9.60
2019-04-16T05:42:31.099Z,7.40
2019-04-16T05:45:05.541Z,11.20
2019-04-16T05:47:38.147Z,10.40
2019-04-16T05:50:10.839Z,9.80
2019-04-16T05:52:40.738Z,9.40
2019-04-16T05:55:40.551Z,20.00
2019-04-16T05:58:10.130Z,9.60
2019-04-16T06:00:58.653Z,12.80
2019-04-16T06:03:28.207Z,11.60
2019-04-16T06:05:59.984Z,15.20
2019-04-16T06:08:30.409Z,9.80
2019-04-16T06:11:00.264Z,13.20
2019-04-16T06:13:46.047Z,16.80
2019-04-16T06:16:44.839Z,14.60
2019-04-16T06:19:46.518Z,12.80
2019-04-16T06:22:38.683Z,4.00
2019-04-16T06:25:31.111Z,13.00
2019-04-16T06:28:28.876Z,7.80
2019-04-16T06:31:18.663Z,9.20
2019-04-16T06:34:23.668Z,10.00
2019-04-16T06:37:09.647Z,10.80
2019-04-16T06:39:45.968Z,9.80
2019-04-16T06:42:30.189Z,11.20
2019-04-16T06:45:04.881Z,12.60
2019-04-16T06:47:49.725Z,16.20
2019-04-16T06:50:45.215Z,11.60
2019-04-16T06:53:56.879Z,12.60
2019-04-16T06:56:50.305Z,12.60
2019-04-16T06:59:34.305Z,14.60
2019-04-16T07:02:24.363Z,13.40
2019-04-16T07:05:22.975Z,12.40
2019-04-16T07:08:36.918Z,10.00
2019-04-16T07:10:59.303Z,9.00
2019-04-16T07:13:29.191Z,8.20
2019-04-16T07:15:59.137Z,12.00
2019-04-16T07:18:31.369Z,12.60
2019-04-16T07:21:07.634Z,10.40
2019-04-16T07:23:38.811Z,10.40
2019-04-16T07:26:13.886Z,13.00
2019-04-16T07:28:59.084Z,12.60
2019-04-16T07:31:35.120Z,11.20
2019-04-16T07:34:29.089Z,12.00
2019-04-16T07:37:33.098Z,13.00
2019-04-16T07:40:21.656Z,14.60
2019-04-16T07:43:24.256Z,12.00
2019-04-16T07:46:13.716Z,15.20
2019-04-16T07:49:04.859Z,14.20
2019-04-16T07:51:55.731Z,14.20
2019-04-16T07:54:55.080Z,12.80
2019-04-16T07:57:24.630Z,15.20
2019-04-16T07:59:55.416Z,14.20
2019-04-16T08:02:25.124Z,12.60
2019-04-16T08:04:55.310Z,12.20
2019-04-16T08:07:25.133Z,6.40
2019-04-16T08:10:01.708Z,10.40
2019-04-16T08:12:30.604Z,15.40
2019-04-16T08:15:12.887Z,16.40
2019-04-16T08:17:33.321Z,13.40
2019-04-16T08:20:03.093Z,17.80
2019-04-16T08:22:33.996Z,15.80
2019-04-16T08:25:05.952Z,6.20
2019-04-16T08:27:39.080Z,12.20
2019-04-16T08:30:15.227Z,15.40
2019-04-16T08:32:48.866Z,17.60
2019-04-16T08:35:19.061Z,16.40
2019-04-16T08:37:51.787Z,16.40
2019-04-16T08:40:21.342Z,17.60
2019-04-16T08:42:57.013Z,10.00
2019-04-16T08:45:26.209Z,18.80
2019-04-16T08:47:56.130Z,16.20
2019-04-16T08:50:26.295Z,18.40
2019-04-16T08:53:00.485Z,20.60
2019-04-16T08:55:31.290Z,16.00
2019-04-16T08:58:06.039Z,17.60
2019-04-16T09:00:33.320Z,17.60
2019-04-16T09:03:02.897Z,13.00
2019-04-16T09:05:32.324Z,18.20
2019-04-16T09:08:13.859Z,15.20
2019-04-16T09:10:44.750Z,19.80
2019-04-16T09:13:17.002Z,15.40
2019-04-16T09:15:47.737Z,18.20
2019-04-16T09:18:33.007Z,16.00
2019-04-16T09:21:10.560Z,12.40
2019-04-16T09:23:42.701Z,15.60
2019-04-16T09:26:31.325Z,17.20
2019-04-16T09:29:21.279Z,13.40
2019-04-16T09:32:12.627Z,15.20
2019-04-16T09:35:08.106Z,13.20
2019-04-16T09:38:05.741Z,16.80
2019-04-16T09:40:52.582Z,17.80
2019-04-16T09:43:26.146Z,18.00
2019-04-16T09:46:09.332Z,18.20
2019-04-16T09:48:27.185Z,15.40
2019-04-16T09:50:56.690Z,13.00
2019-04-16T09:53:34.068Z,18.80
2019-04-16T09:56:23.395Z,9.60
2019-04-16T09:58:53.388Z,12.80
2019-04-16T10:01:25.657Z,15.00
2019-04-16T10:03:55.113Z,14.00
2019-04-16T10:06:24.518Z,16.80
2019-04-16T10:08:56.671Z,21.60
2019-04-16T10:11:35.905Z,14.20
2019-04-16T10:14:05.261Z,16.80
2019-04-16T10:16:35.033Z,15.60
2019-04-16T10:19:08.372Z,13.40
2019-04-16T10:21:36.395Z,15.40
2019-04-16T10:24:13.057Z,18.00
2019-04-16T10:26:41.349Z,18.00
2019-04-16T10:29:14.313Z,7.80
2019-04-16T10:31:44.014Z,17.20
2019-04-16T10:34:13.903Z,16.00
2019-04-16T10:36:44.098Z,18.20
2019-04-16T10:39:50.169Z,18.00
2019-04-16T10:42:38.647Z,17.20
2019-04-16T10:45:27.724Z,13.00
2019-04-16T10:48:14.828Z,16.00
2019-04-16T10:50:52.126Z,16.00
2019-04-16T10:53:28.391Z,13.40
2019-04-16T10:56:23.027Z,15.40
2019-04-16T10:59:17.356Z,19.40
2019-04-16T11:01:58.714Z,14.80
2019-04-16T11:04:43.035Z,17.20
2019-04-16T11:07:13.745Z,17.60
2019-04-16T11:09:44.465Z,16.00
2019-04-16T11:12:19.661Z,15.40
2019-04-16T11:14:51.471Z,15.80
2019-04-16T11:17:26.298Z,15.40
2019-04-16T11:20:00.069Z,16.40
2019-04-16T11:22:29.058Z,15.20
2019-04-16T11:24:59.117Z,15.80
2019-04-16T11:27:28.616Z,16.00
2019-04-16T11:29:58.353Z,16.00
2019-04-16T11:32:29.367Z,15.20
2019-04-16T11:35:02.131Z,13.00
2019-04-16T11:37:35.979Z,15.60
2019-04-16T11:40:05.326Z,13.80
2019-04-16T11:42:35.137Z,9.80
2019-04-16T11:45:06.465Z,16.00
2019-04-16T11:47:36.174Z,12.20
2019-04-16T11:50:06.112Z,16.40
2019-04-16T11:52:35.583Z,15.20
2019-04-16T11:55:06.117Z,11.80
2019-04-16T11:57:35.685Z,15.00
2019-04-16T12:00:08.521Z,15.20
2019-04-16T12:02:52.328Z,15.60
2019-04-16T12:05:30.246Z,6.20
2019-04-16T12:08:16.440Z,14.60
2019-04-16T12:11:04.793Z,15.00
2019-04-16T12:14:04.132Z,15.20
2019-04-16T12:16:57.421Z,16.00
2019-04-16T12:19:46.201Z,16.00
2019-04-16T12:22:28.420Z,13.40
2019-04-16T12:25:17.368Z,14.60
2019-04-16T12:28:11.988Z,14.20
2019-04-16T12:30:56.666Z,14.60
2019-04-16T12:33:38.179Z,13.60
2019-04-16T12:36:27.087Z,16.00
2019-04-16T12:39:19.594Z,10.00
2019-04-16T12:42:16.156Z,14.60
2019-04-16T12:44:54.402Z,13.60
2019-04-16T12:47:41.215Z,14.60
2019-04-16T12:50:39.808Z,14.20
2019-04-16T12:53:28.967Z,13.20
2019-04-16T12:56:23.719Z,10.20
2019-04-16T12:59:00.796Z,8.60
2019-04-16T13:01:49.125Z,12.20
2019-04-16T13:04:35.862Z,11.80
2019-04-16T13:07:15.309Z,12.60
2019-04-16T13:09:59.599Z,7.00
2019-04-16T13:12:43.547Z,13.00
2019-04-16T13:15:50.060Z,9.20
2019-04-16T13:18:41.780Z,10.00
2019-04-16T13:21:19.738Z,10.20
2019-04-16T13:24:02.261Z,8.00
2019-04-16T13:26:37.640Z,11.80
2019-04-16T13:29:17.690Z,16.00
2019-04-16T13:31:47.406Z,9.20
2019-04-16T13:34:18.643Z,10.20
2019-04-16T13:36:51.664Z,11.40
2019-04-16T13:39:34.068Z,8.00
2019-04-16T13:42:03.621Z,11.40
2019-04-16T13:44:48.870Z,10.00
2019-04-16T13:47:18.311Z,10.00
2019-04-16T13:50:03.299Z,10.40
2019-04-16T13:52:34.580Z,14.00
2019-04-16T13:55:38.183Z,11.40
2019-04-16T13:58:17.250Z,17.60
2019-04-16T14:00:51.344Z,9.60
2019-04-16T14:03:23.716Z,10.00
2019-04-16T14:05:52.211Z,13.60
2019-04-16T14:08:21.735Z,9.20
2019-04-16T14:10:53.910Z,10.00
2019-04-16T14:13:27.583Z,12.60
2019-04-16T14:16:01.947Z,12.60
2019-04-16T14:18:34.174Z,15.20
2019-04-16T14:21:03.609Z,13.20
2019-04-16T14:23:33.639Z,14.00
2019-04-16T14:26:03.004Z,13.60
2019-04-16T14:28:34.559Z,12.60
2019-04-16T14:31:04.205Z,5.40
2019-04-16T14:33:42.069Z,14.20
2019-04-16T14:36:11.730Z,10.00
2019-04-16T14:38:51.818Z,14.40
2019-04-16T14:41:22.146Z,12.00
2019-04-16T14:43:58.780Z,8.00
2019-04-16T14:46:29.127Z,4.40
2019-04-16T14:48:58.601Z,10.20
2019-04-16T14:51:28.192Z,12.20
2019-04-16T14:54:22.746Z,12.80
2019-04-16T14:56:54.801Z,10.60
2019-04-16T14:59:41.840Z,13.60
2019-04-16T15:02:29.725Z,11.00
2019-04-16T15:05:30.086Z,12.00
2019-04-16T15:08:22.079Z,14.00
2019-04-16T15:11:09.127Z,14.60
2019-04-16T15:14:00.816Z,11.60
2019-04-16T15:16:50.774Z,11.20
2019-04-16T15:19:35.226Z,14.00
2019-04-16T15:22:45.734Z,12.60
2019-04-16T15:25:44.418Z,14.40
2019-04-16T15:28:28.543Z,13.80
2019-04-16T15:31:02.972Z,14.60
2019-04-16T15:34:01.748Z,15.00
2019-04-16T15:36:36.223Z,14.00
2019-04-16T15:39:16.670Z,14.00
2019-04-16T15:42:05.675Z,17.40
2019-04-16T15:44:41.631Z,15.20
2019-04-16T15:47:31.864Z,12.00
2019-04-16T15:50:08.321Z,13.60
2019-04-16T15:53:00.086Z,17.80
2019-04-16T15:55:38.182Z,16.60
2019-04-16T15:58:25.090Z,16.40
2019-04-16T16:01:13.692Z,15.60
2019-04-16T16:04:09.106Z,13.60
2019-04-16T16:06:58.912Z,15.20
2019-04-16T16:09:59.772Z,15.20
2019-04-16T16:12:31.065Z,15.20
2019-04-16T16:15:00.819Z,12.20
2019-04-16T16:17:31.092Z,11.80
2019-04-16T16:20:00.903Z,15.00
2019-04-16T16:22:31.195Z,12.80
2019-04-16T16:25:05.378Z,17.40
2019-04-16T16:27:32.861Z,14.80
2019-04-16T16:30:02.336Z,15.60
2019-04-16T16:32:32.358Z,18.20
2019-04-16T16:35:02.776Z,15.40
2019-04-16T16:37:42.796Z,18.80
2019-04-16T16:40:15.302Z,13.80
2019-04-16T16:42:45.579Z,8.00
2019-04-16T16:45:15.112Z,15.20
2019-04-16T16:47:48.362Z,9.60
2019-04-16T16:50:19.657Z,16.00
2019-04-16T16:53:16.752Z,14.20
2019-04-16T16:55:51.367Z,13.20
2019-04-16T16:58:39.775Z,13.80
2019-04-16T17:01:26.574Z,13.20
2019-04-16T17:04:09.497Z,12.00
2019-04-16T17:06:39.310Z,12.20
2019-04-16T17:09:11.987Z,14.60
2019-04-16T17:11:43.290Z,10.80
2019-04-16T17:14:13.451Z,12.60
2019-04-16T17:16:43.163Z,6.40
2019-04-16T17:19:13.016Z,12.00
2019-04-16T17:21:42.485Z,13.80
2019-04-16T17:24:11.913Z,9.80
2019-04-16T17:26:41.349Z,12.00
2019-04-16T17:29:11.856Z,12.20
2019-04-16T17:31:42.491Z,11.20
2019-04-16T17:34:11.948Z,7.00
2019-04-16T17:36:41.611Z,10.40
2019-04-16T17:39:12.056Z,11.20
2019-04-16T17:42:04.145Z,10.40
2019-04-16T17:44:38.962Z,10.80
2019-04-16T17:47:32.357Z,6.00
2019-04-16T17:50:05.734Z,8.20
2019-04-16T17:52:45.920Z,7.00
2019-04-16T17:55:29.499Z,6.80
2019-04-16T17:58:08.463Z,9.20
2019-04-16T18:01:04.224Z,6.80
2019-04-16T18:03:59.851Z,7.40
2019-04-16T18:07:03.630Z,6.80
2019-04-16T18:09:36.586Z,7.00
2019-04-16T18:12:16.888Z,7.40
2019-04-16T18:15:09.411Z,3.80
2019-04-16T18:17:47.358Z,4.00
2019-04-16T18:20:40.104Z,6.40
2019-04-16T18:23:23.287Z,6.80
2019-04-16T18:26:10.661Z,6.00
2019-04-16T18:28:49.070Z,4.00
2019-04-16T18:31:36.772Z,6.00
2019-04-16T18:34:31.219Z,7.80
2019-04-16T18:37:22.256Z,6.40
2019-04-16T18:40:11.185Z,6.00
2019-04-16T18:42:53.126Z,7.40
2019-04-16T18:45:40.247Z,6.80
2019-04-16T18:48:20.210Z,6.20
2019-04-16T18:50:52.490Z,7.40
2019-04-16T18:53:24.532Z,6.00
2019-04-16T18:55:56.851Z,6.00
2019-04-16T18:58:32.821Z,7.80
2019-04-16T19:01:10.481Z,6.40
2019-04-16T19:03:40.170Z,6.80
2019-04-16T19:06:11.203Z,4.00
2019-04-16T19:08:42.579Z,7.00
2019-04-16T19:11:13.749Z,4.00
2019-04-16T19:13:43.604Z,3.80
2019-04-16T19:16:17.301Z,5.60
2019-04-16T19:18:47.089Z,1.00
2019-04-16T19:21:18.767Z,3.20
2019-04-16T19:23:50.372Z,3.00
2019-04-16T19:26:23.159Z,3.00
2019-04-16T19:28:54.693Z,4.00
2019-04-16T19:31:26.836Z,2.20
2019-04-16T19:33:59.971Z,3.00
2019-04-16T19:36:29.519Z,3.00
2019-04-16T19:39:05.500Z,3.00
2019-04-16T19:41:34.476Z,3.00
2019-04-16T19:44:07.563Z,3.00
2019-04-16T19:46:41.126Z,3.00
2019-04-16T19:49:12.292Z,3.00
2019-04-16T19:51:42.069Z,2.60
2019-04-16T19:54:11.429Z,2.60
2019-04-16T19:56:41.109Z,3.00
2019-04-16T19:59:11.664Z,3.00
2019-04-16T20:01:41.255Z,1.00
2019-04-16T20:04:11.175Z,0.00
2019-04-16T20:06:42.887Z,3.20
2019-04-16T20:09:13.153Z,1.80
2019-04-16T20:11:44.704Z,1.00
2019-04-16T20:14:15.155Z,1.00
2019-04-16T20:16:46.933Z,1.00
2019-04-16T20:19:19.046Z,1.00
2019-04-16T20:21:49.124Z,1.80
2019-04-16T20:24:18.600Z,0.60
2019-04-16T20:26:50.014Z,0.40
2019-04-16T20:29:19.437Z,0.00
2019-04-16T20:31:49.021Z,1.00
2019-04-16T20:34:22.177Z,0.00
2019-04-16T20:36:54.996Z,0.40
2019-04-16T20:39:24.395Z,1.00
2019-04-16T20:41:58.983Z,1.80
2019-04-16T20:44:27.862Z,1.00
2019-04-16T20:47:03.689Z,1.40
2019-04-16T20:49:33.259Z,3.00
2019-04-16T20:52:04.225Z,0.00
2019-04-16T20:54:37.430Z,3.00
2019-04-16T20:57:11.695Z,1.00
2019-04-16T20:59:41.374Z,1.00
2019-04-16T21:02:14.321Z,1.00
2019-04-16T21:04:45.716Z,1.00
2019-04-16T21:07:17.735Z,1.00
2019-04-16T21:09:47.282Z,0.00
2019-04-16T21:12:17.944Z,1.80
2019-04-16T21:14:47.690Z,3.00
2019-04-16T21:17:18.753Z,1.00
2019-04-16T21:19:50.536Z,1.00
2019-04-16T21:22:27.670Z,2.20
2019-04-16T21:24:56.468Z,3.20
2019-04-16T21:27:27.239Z,1.80
2019-04-16T21:29:56.960Z,1.00
2019-04-16T21:32:45.566Z,1.00
2019-04-16T21:35:19.742Z,1.00
2019-04-16T21:38:26.626Z,0.60
2019-04-16T21:40:57.404Z,1.00
2019-04-16T21:43:27.258Z,3.00
2019-04-16T21:46:00.244Z,1.00
2019-04-16T21:48:33.276Z,2.20
2019-04-16T21:51:04.525Z,1.00
2019-04-16T21:53:34.992Z,3.00
2019-04-16T21:56:07.841Z,3.00
2019-04-16T21:58:36.149Z,3.40
2019-04-16T22:01:23.676Z,3.20
2019-04-16T22:03:59.745Z,3.40
2019-04-16T22:06:29.917Z,2.20
2019-04-16T22:09:03.561Z,3.80
2019-04-16T22:11:31.276Z,3.00
2019-04-16T22:14:01.119Z,4.00
2019-04-16T22:16:31.018Z,1.00
2019-04-16T22:19:01.068Z,1.80
2019-04-16T22:21:32.247Z,3.80
2019-04-16T22:24:04.221Z,3.00
2019-04-16T22:26:35.261Z,3.00
2019-04-16T22:29:07.436Z,3.00
2019-04-16T22:31:39.546Z,3.60
2019-04-16T22:34:12.719Z,4.00
2019-04-16T22:36:43.326Z,4.00
2019-04-16T22:39:30.409Z,3.20
2019-04-16T22:42:22.008Z,5.60
2019-04-16T22:45:21.624Z,4.00
2019-04-16T22:47:52.861Z,4.80
2019-04-16T22:50:24.618Z,3.00
2019-04-16T22:52:54.093Z,3.20
2019-04-16T22:55:29.514Z,3.60
2019-04-16T22:57:59.826Z,3.60
2019-04-16T23:00:33.547Z,5.60
2019-04-16T23:03:04.224Z,3.80
2019-04-16T23:05:33.783Z,3.80
2019-04-16T23:08:03.376Z,4.00
2019-04-16T23:10:33.018Z,4.40
2019-04-16T23:13:04.354Z,6.00
2019-04-16T23:15:34.488Z,6.00
2019-04-16T23:18:05.198Z,4.80
2019-04-16T23:20:37.083Z,4.00
2019-04-16T23:23:06.715Z,4.00
2019-04-16T23:25:36.317Z,5.60
2019-04-16T23:28:10.681Z,6.00
2019-04-16T23:30:38.094Z,7.00
2019-04-16T23:33:08.447Z,6.00
2019-04-16T23:35:43.367Z,4.00
2019-04-16T23:38:09.436Z,4.80
2019-04-16T23:40:40.851Z,1.00
2019-04-16T23:43:33.047Z,5.60
2019-04-16T23:46:20.678Z,4.00
2019-04-16T23:49:20.051Z,6.40
2019-04-16T23:52:11.318Z,5.80
2019-04-16T23:54:45.111Z,4.80
2019-04-16T23:57:31.420Z,4.40
